Decoded Metar for EINN (SHANNON in IRELAND) (IATA:SNN) | Meteo·Mobile Aviation Weather
aviador You're here:

EINN Decoded Metar

SHANNON in IRELAND
Report Time2018-11-18 21:00:00
UTC Time2018-11-18 21:15:34
Flight Rules vfr VFR
Wind100° at 05 kt
W.Decomp.*RWY 06: 3.5 kt HW 3.5 kt RCW
W.Rank100° ranks 15
Current wind is below 100° avg. (8.0)
Visibility9999 m
Phenomena:N/A
Clouds:N/A
Expected CloudBase > 2,400 ft AGL from Temp-Dew spread
CeilingNone
Temp07°C (ISA -8)
Dew Point01°C (66% RH)
AAT3.4°C
QNH1024 hPa
Density Alt-1,161 ft
Elevation66 ft
Report Wrong Elevation
Raw Report
EINN 182100Z 10005KT CAVOK 07/01 Q1024 NOSIG=

Extra information for EINN:More info

Metar Taf Metar & Taf Last 4 Metars F.Rules Stats Wind Profile Meteogram Temp Stats Airport Information Weather charts Add Link Nearby VenuesMetar ALERT Operation Metar Decoded Social comments